Flight Track Log - Related Links

Times and Time Zones

All times are in EDT time to prevent confusion due to time zone crossing. See the DAL3974 flight status page for this flight to view local times or setup timezone preferences in your user account.

Time Position Orientation Groundspeed Altitude Reporting Facility
EDT Latitude Longitude Course Direction KTS MPH feet Rate Location/Type
Thu 10:28:52 PM 42.2081 -83.3528 94° East 138 159 1,200  Level Cleveland Center
Thu 10:30:02 PM 42.1519 -83.3447 174° South 212 244 3,200 1,976 Climbing Cleveland Center
Thu 10:30:17 PM 42.1392 -83.3497 196° South 216 249 4,000 2,172 Climbing Cleveland Center
Thu 10:31:00 PM 42.0936 -83.3394 170° South 256 295 5,300 2,800 Climbing Cleveland Center
Thu 10:32:00 PM 42.3142 -82.7247 78° East  Level FlightAware Approximate
Thu 10:32:02 PM 42.0367 -83.2839 144° Southeast 260 299 8,900  Level Cleveland Center
Thu 10:33:00 PM 42.3364 -82.5651 77° East  Level FlightAware Approximate
Thu 10:33:02 PM 42.0661 -83.1733 70° East 260 299 10,500  Level Cleveland Center
Thu 10:34:00 PM 42.3646 -82.4113 94° East  Level FlightAware Approximate
Thu 10:34:02 PM 42.1189 -83.0494 60° Northeast 314 361 11,700  Level Cleveland Center
Thu 10:35:02 PM 42.1717 -82.9197 61° Northeast 352 405 13,000 1,450 Climbing Cleveland Center
Thu 10:36:02 PM 42.2286 -82.7844 60° Northeast 387 445 14,600 1,550 Climbing Cleveland Center
Thu 10:37:02 PM 42.2875 -82.6461 60° Northeast 406 467 16,100 1,500 Climbing Cleveland Center
Thu 10:38:02 PM 42.3461 -82.5075 60° Northeast 413 475 17,600 1,500 Climbing Cleveland Center
Thu 10:39:02 PM 42.3653 -82.3564 80° East 402 463 19,100 1,400 Climbing Cleveland Center
Thu 10:40:02 PM 42.3736 -82.2047 86° East 396 456 20,400 1,100 Climbing Cleveland Center
Thu 10:41:02 PM 42.3883 -82.0506 83° East 408 470 21,300 850 Climbing Cleveland Center
Thu 10:42:02 PM 42.3986 -81.8878 85° East 416 479 22,100 750 Climbing Cleveland Center
Thu 10:43:02 PM 42.4128 -81.7278 83° East 427 491 22,800 700 Climbing Cleveland Center
Thu 10:44:02 PM 42.4267 -81.5678 83° East 427 491 23,500 700 Climbing Cleveland Center
Thu 10:45:02 PM 42.4386 -81.4019 84° East 433 498 24,200 700 Climbing Cleveland Center
Thu 10:46:02 PM 42.4500 -81.2389 85° East 433 498 24,900 650 Climbing Cleveland Center
Thu 10:47:02 PM 42.4611 -81.0953 84° East 433 498 25,500 650 Climbing Cleveland Center
Thu 10:48:02 PM 42.4722 -80.9267 85° East 433 498 26,200 700 Climbing Cleveland Center
Thu 10:49:02 PM 42.4850 -80.7717 84° East 428 493 26,900 400 Climbing Cleveland Center
Thu 10:50:02 PM 42.4936 -80.6086 86° East 428 493 27,000 50 Climbing Cleveland Center
Thu 10:51:02 PM 42.5061 -80.4394 84° East 433 498 27,000  Level Cleveland Center
Thu 10:52:02 PM 42.5181 -80.2650 85° East 451 519 27,000  Level Cleveland Center
Thu 10:53:02 PM 42.5278 -80.0733 86° East 458 527 27,000  Level Cleveland Center
Thu 10:54:02 PM 42.5417 -79.9125 83° East 466 536 27,000  Level Cleveland Center
Thu 10:55:02 PM 42.5531 -79.7347 85° East 466 536 27,000  Level Cleveland Center
Thu 10:56:02 PM 42.5642 -79.5628 85° East 466 536 27,000  Level Cleveland Center
Thu 10:57:02 PM 42.5728 -79.3878 86° East 461 531 27,000  Level Cleveland Center
Thu 10:58:02 PM 42.5833 -79.2156 85° East 461 531 27,000  Level Cleveland Center
Thu 10:59:02 PM 42.5897 -79.0433 87° East 461 531 27,000  Level Cleveland Center
Thu 11:00:02 PM 42.5978 -78.8739 86° East 461 531 27,000  Level Cleveland Center
Thu 11:01:02 PM 42.6075 -78.7072 85° East 456 525 27,000  Level Cleveland Center
Thu 11:02:02 PM 42.6172 -78.5319 86° East 456 525 27,000  Level Cleveland Center
Thu 11:03:02 PM 42.6244 -78.3597 87° East 456 525 27,000  Level Cleveland Center
Thu 11:04:02 PM 42.6314 -78.1872 87° East 461 531 27,000  Level Cleveland Center
Thu 11:05:02 PM 42.6400 -78.0119 86° East 461 531 27,000  Level Cleveland Center
Thu 11:06:02 PM 42.6464 -77.8367 87° East 461 531 27,000  Level Cleveland Center
Thu 11:07:02 PM 42.6561 -77.6414 86° East 466 536 27,000  Level Cleveland Center
Thu 11:08:02 PM 42.6619 -77.4658 87° East 466 536 27,000  Level Cleveland Center
Thu 11:10:03 PM 42.6753 -77.1119 87° East 464 534 27,000  Level Boston Center
Thu 11:11:01 PM 42.6825 -76.9344 87° East 464 534 27,000  Level Boston Center
Thu 11:12:01 PM 42.6872 -76.7567 88° East 464 534 27,000  Level Boston Center
Thu 11:13:02 PM 42.6942 -76.5764 87° East 464 534 27,000  Level Boston Center
Thu 11:14:02 PM 42.6983 -76.3986 88° East 469 540 27,000  Level Boston Center
Thu 11:15:03 PM 42.7064 -76.2211 86° East 474 545 27,000  Level Boston Center
Thu 11:16:03 PM 42.7103 -76.0403 88° East 474 545 27,000  Level Boston Center
Thu 11:17:02 PM 42.7136 -75.8594 89° East 474 545 27,000  Level Boston Center
Thu 11:18:01 PM 42.7189 -75.6817 88° East 474 545 27,000  Level Boston Center
Thu 11:19:01 PM 42.7217 -75.5039 89° East 474 545 27,000  Level Boston Center
Thu 11:20:01 PM 42.7244 -75.3231 89° East 474 545 27,000  Level Boston Center
Thu 11:21:01 PM 42.7289 -75.1422 88° East 475 547 27,000  Level Boston Center
Thu 11:22:01 PM 42.7331 -74.9644 88° East 475 547 27,000  Level Boston Center
Thu 11:23:03 PM 42.7361 -74.8203 88° East 475 547 27,000  Level Boston Center
Thu 11:24:03 PM 42.7383 -74.6056 89° East 475 547 27,000  Level Boston Center
Thu 11:25:00 PM 42.7394 -74.4275 89° East 475 547 27,000  Level Boston Center
Thu 11:26:02 PM 42.7425 -74.2439 89° East 475 547 27,000  Level Boston Center
Thu 11:27:01 PM 42.7431 -74.0628 90° East 475 547 27,000  Level Boston Center
Thu 11:28:01 PM 42.7456 -73.8819 89° East 475 547 27,000  Level Boston Center
Thu 11:29:02 PM 42.7472 -73.7378 89° East 475 547 27,000  Level Boston Center
Thu 11:30:01 PM 42.7578 -73.5400 86° East 475 547 27,000  Level Boston Center
Thu 11:31:26 PM 42.7658 -73.3253 87° East 475 547 27,000 -1,076 Level Boston Center
Thu 11:32:26 PM 42.7736 -73.0906 87° East 475 547 24,400 -2,800 Descending Boston Center
Thu 11:33:26 PM 42.7786 -72.9097 88° East 485 558 21,400 -2,847 Descending Boston Center
Thu 11:34:24 PM 42.7833 -72.7483 88° East 451 519 18,800 -2,650 Descending Boston Center
Thu 11:35:26 PM 42.7881 -72.5900 88° East 429 494 16,100 -2,683 Descending Boston Center
Thu 11:36:27 PM 42.7922 -72.4344 88° East 416 479 13,300 -2,430 Descending Boston Center
Thu 11:37:27 PM 42.7983 -72.2900 87° East 401 461 11,200 -1,576 Descending Boston Center
Thu 11:38:25 PM 42.8147 -72.1797 79° East 354 407 10,200 -1,068 Descending Boston Center
Thu 11:39:25 PM 42.8353 -72.0494 78° East 323 372 9,100 -1,033 Descending Boston Center
Thu 11:40:27 PM 42.8517 -71.9444 78° East 318 366 8,100 -1,210 Descending Boston Center
Thu 11:41:24 PM 42.9031 -71.8336 58° Northeast 312 359 6,700 -1,400 Descending Boston Center
Thu 11:42:27 PM 42.9569 -71.7478 49° Northeast 318 366 5,300 -1,353 Descending Boston Center
Thu 11:43:37 PM 43.0208 -71.6506 48° Northeast 313 360 3,700 -1,282 Descending Boston Center
Thu 11:44:38 PM 43.0681 -71.5478 58° Northeast 281 323 2,500 -590 Descending Boston Center
Thu 11:45:39 PM 43.0364 -71.4997 132° Southeast 188 216 2,500  Level Boston Center

Login

Don't have an account? Register now (free) for customized features, flight alerts, and more!